createdAt,value
2022-10-01T00:00:26.171Z,3.20
2022-10-01T00:02:53.673Z,2.70
2022-10-01T00:05:21.039Z,3.03
2022-10-01T00:07:47.839Z,2.70
2022-10-01T00:10:15.762Z,2.95
2022-10-01T00:12:48.796Z,2.63
2022-10-01T00:15:16.535Z,2.50
2022-10-01T00:17:43.293Z,2.70
2022-10-01T00:20:14.225Z,2.60
2022-10-01T00:22:41.175Z,2.90
2022-10-01T00:25:07.639Z,2.88
2022-10-01T00:27:34.022Z,2.90
2022-10-01T00:30:00.391Z,2.97
2022-10-01T00:32:26.697Z,3.10
2022-10-01T00:34:53.005Z,3.00
2022-10-01T00:37:19.357Z,2.78
2022-10-01T00:39:45.657Z,3.03
2022-10-01T00:42:23.567Z,2.95
2022-10-01T00:44:50.576Z,2.70
2022-10-01T00:47:36.735Z,3.05
2022-10-01T00:50:05.641Z,3.08
2022-10-01T00:52:34.072Z,3.00
2022-10-01T00:55:15.034Z,2.75
2022-10-01T00:57:43.545Z,2.70
2022-10-01T01:00:11.298Z,2.50
2022-10-01T01:02:37.747Z,2.75
2022-10-01T01:05:04.608Z,3.10
2022-10-01T01:07:32.979Z,2.92
2022-10-01T01:10:01.702Z,3.05
2022-10-01T01:12:55.911Z,3.20
2022-10-01T01:15:41.345Z,2.95
2022-10-01T01:18:22.651Z,2.80
2022-10-01T01:20:48.916Z,3.10
2022-10-01T01:23:15.174Z,2.90
2022-10-01T01:26:19.449Z,3.03
2022-10-01T01:28:57.033Z,2.60
2022-10-01T01:31:29.940Z,3.13
2022-10-01T01:33:58.804Z,2.80
2022-10-01T01:36:32.409Z,3.03
2022-10-01T01:39:04.199Z,2.67
2022-10-01T01:41:37.350Z,2.55
2022-10-01T01:44:08.501Z,2.70
2022-10-01T01:46:41.478Z,2.97
2022-10-01T01:49:07.932Z,2.92
2022-10-01T01:51:43.404Z,3.00
2022-10-01T01:54:09.888Z,2.95
2022-10-01T01:56:36.681Z,2.67
2022-10-01T01:59:03.711Z,3.10
2022-10-01T02:01:46.121Z,2.97
2022-10-01T02:04:24.422Z,2.75
2022-10-01T02:07:18.715Z,2.97
2022-10-01T02:09:55.363Z,2.80
2022-10-01T02:13:03.266Z,3.10
2022-10-01T02:15:52.913Z,2.83
2022-10-01T02:18:34.003Z,3.15
2022-10-01T02:21:19.067Z,2.42
2022-10-01T02:23:56.909Z,2.90
2022-10-01T02:26:24.693Z,2.90
2022-10-01T02:28:55.157Z,2.92
2022-10-01T02:31:23.738Z,3.00
2022-10-01T02:33:53.375Z,2.65
2022-10-01T02:36:21.694Z,2.80
2022-10-01T02:38:49.018Z,2.92
2022-10-01T02:41:20.530Z,2.97
2022-10-01T02:44:01.199Z,3.67
2022-10-01T02:46:33.499Z,3.63
2022-10-01T02:49:00.044Z,3.83
2022-10-01T02:52:01.892Z,3.65
2022-10-01T02:54:34.638Z,4.53
2022-10-01T02:57:00.968Z,4.43
2022-10-01T02:59:27.335Z,5.43
2022-10-01T03:01:54.055Z,4.65
2022-10-01T03:04:20.491Z,5.22
2022-10-01T03:06:46.837Z,5.07
2022-10-01T03:09:13.424Z,5.03
2022-10-01T03:11:39.827Z,5.35
2022-10-01T03:14:06.163Z,5.28
2022-10-01T03:16:33.172Z,5.30
2022-10-01T03:18:59.463Z,5.30
2022-10-01T03:21:25.804Z,5.32
2022-10-01T03:23:52.153Z,5.40
2022-10-01T03:26:18.466Z,6.43
2022-10-01T03:28:44.761Z,5.90
2022-10-01T03:31:11.579Z,6.07
2022-10-01T03:33:37.920Z,6.57
2022-10-01T03:36:04.858Z,5.80
2022-10-01T03:38:31.589Z,6.95
2022-10-01T03:40:57.934Z,6.88
2022-10-01T03:43:24.248Z,6.60
2022-10-01T03:45:50.615Z,6.65
2022-10-01T03:48:16.979Z,5.75
2022-10-01T03:50:43.291Z,5.75
2022-10-01T03:53:09.628Z,5.97
2022-10-01T03:55:35.938Z,6.00
2022-10-01T03:58:02.243Z,5.55
2022-10-01T04:00:28.546Z,6.07
2022-10-01T04:02:54.918Z,5.95
2022-10-01T04:05:21.263Z,5.82
2022-10-01T04:07:47.587Z,5.32
2022-10-01T04:10:14.026Z,5.90
2022-10-01T04:12:40.339Z,6.10
2022-10-01T04:15:07.099Z,5.60
2022-10-01T04:17:33.408Z,5.45
2022-10-01T04:19:59.818Z,5.10
2022-10-01T04:22:26.159Z,5.00
2022-10-01T04:24:52.462Z,4.45
2022-10-01T04:27:18.770Z,4.50
2022-10-01T04:29:45.084Z,4.00
2022-10-01T04:32:11.467Z,4.53
2022-10-01T04:34:37.789Z,4.30
2022-10-01T04:37:04.150Z,4.22
2022-10-01T04:39:30.443Z,4.18
2022-10-01T04:41:56.763Z,4.20
2022-10-01T04:44:23.206Z,4.38
2022-10-01T04:46:49.538Z,4.03
2022-10-01T04:49:15.954Z,4.30
2022-10-01T04:51:42.250Z,3.63
2022-10-01T04:54:08.565Z,3.60
2022-10-01T04:56:34.867Z,4.18
2022-10-01T04:59:01.251Z,4.03
2022-10-01T05:01:27.656Z,3.80
2022-10-01T05:03:53.996Z,4.18
2022-10-01T05:06:20.290Z,4.43
2022-10-01T05:08:46.624Z,3.83
2022-10-01T05:11:12.938Z,4.25
2022-10-01T05:13:39.331Z,4.05
2022-10-01T05:16:05.815Z,3.75
2022-10-01T05:18:32.177Z,3.90
2022-10-01T05:20:58.498Z,3.60
2022-10-01T05:23:24.872Z,3.90
2022-10-01T05:25:51.165Z,4.13
2022-10-01T05:28:22.194Z,3.97
2022-10-01T05:30:49.242Z,3.92
2022-10-01T05:33:15.604Z,4.32
2022-10-01T05:35:42.236Z,4.30
2022-10-01T05:38:08.634Z,4.00
2022-10-01T05:40:34.963Z,3.67
2022-10-01T05:43:01.630Z,3.70
2022-10-01T05:45:29.776Z,3.78
2022-10-01T05:47:57.902Z,4.10
2022-10-01T05:50:24.483Z,3.42
2022-10-01T05:52:51.896Z,3.72
2022-10-01T05:55:18.524Z,3.90
2022-10-01T05:57:45.082Z,3.60
2022-10-01T06:00:11.963Z,3.90
2022-10-01T06:02:38.765Z,3.55
2022-10-01T06:05:05.955Z,3.72
2022-10-01T06:07:32.419Z,3.00
2022-10-01T06:09:58.724Z,3.63
2022-10-01T06:12:25.670Z,3.22
2022-10-01T06:14:51.991Z,3.30
2022-10-01T06:17:18.284Z,3.42
2022-10-01T06:19:44.614Z,3.33
2022-10-01T06:22:10.926Z,2.90
2022-10-01T06:24:37.230Z,3.15
2022-10-01T06:27:03.867Z,2.83
2022-10-01T06:29:30.173Z,2.70
2022-10-01T06:32:08.754Z,2.63
2022-10-01T06:34:35.523Z,2.85
2022-10-01T06:37:01.838Z,2.83
2022-10-01T06:39:28.143Z,2.55
2022-10-01T06:41:54.485Z,2.40
2022-10-01T06:44:26.313Z,2.13
2022-10-01T06:46:52.650Z,2.08
2022-10-01T06:49:19.188Z,2.40
2022-10-01T06:51:48.597Z,1.90
2022-10-01T06:54:14.911Z,1.90
2022-10-01T06:56:41.234Z,2.20
2022-10-01T06:59:07.872Z,1.90
2022-10-01T07:01:34.600Z,2.15
2022-10-01T07:04:01.449Z,1.75
2022-10-01T07:06:27.863Z,2.38
2022-10-01T07:08:54.287Z,1.88
2022-10-01T07:11:20.637Z,2.20
2022-10-01T07:13:49.971Z,1.85
2022-10-01T07:16:18.737Z,1.70
2022-10-01T07:18:45.101Z,1.70
2022-10-01T07:21:11.501Z,1.80
2022-10-01T07:23:37.835Z,1.58
2022-10-01T07:26:06.260Z,1.50
2022-10-01T07:28:32.555Z,1.58
2022-10-01T07:31:01.892Z,1.50
2022-10-01T07:33:28.508Z,1.63
2022-10-01T07:35:55.009Z,1.50
2022-10-01T07:38:21.744Z,1.40
2022-10-01T07:40:52.343Z,1.80
2022-10-01T07:43:18.683Z,1.70
2022-10-01T07:45:45.539Z,1.88
2022-10-01T07:48:11.883Z,2.10
2022-10-01T07:50:38.203Z,1.75
2022-10-01T07:53:04.492Z,2.05
2022-10-01T07:55:30.833Z,2.30
2022-10-01T07:57:58.621Z,2.10
2022-10-01T08:00:26.364Z,2.13
2022-10-01T08:02:54.640Z,2.08
2022-10-01T08:05:23.916Z,2.33
2022-10-01T08:07:50.402Z,2.20
2022-10-01T08:10:19.423Z,2.53
2022-10-01T08:12:46.145Z,1.85
2022-10-01T08:15:15.915Z,1.80
2022-10-01T08:17:43.250Z,1.85
2022-10-01T08:20:11.830Z,1.80
2022-10-01T08:22:41.817Z,1.80
2022-10-01T08:25:09.387Z,1.95
2022-10-01T08:27:35.892Z,1.83
2022-10-01T08:30:02.233Z,2.10
2022-10-01T08:32:28.607Z,1.83
2022-10-01T08:34:56.748Z,1.70
2022-10-01T08:37:29.423Z,1.90
2022-10-01T08:39:56.480Z,1.80
2022-10-01T08:42:47.339Z,2.17
2022-10-01T08:45:45.821Z,1.90
2022-10-01T08:48:28.029Z,2.45
2022-10-01T08:50:59.030Z,2.13
2022-10-01T08:53:40.325Z,2.00
2022-10-01T08:56:21.612Z,2.30
2022-10-01T08:58:56.562Z,2.10
2022-10-01T09:03:49.680Z,2.08
2022-10-01T09:06:24.201Z,2.10
2022-10-01T09:09:02.560Z,2.10
2022-10-01T09:11:32.154Z,2.40
2022-10-01T09:14:04.789Z,2.85
2022-10-01T09:16:42.063Z,3.33
2022-10-01T09:19:48.040Z,3.50
2022-10-01T09:22:31.131Z,2.97
2022-10-01T09:25:11.938Z,3.55
2022-10-01T09:27:38.658Z,3.80
2022-10-01T09:30:12.177Z,4.40
2022-10-01T09:32:54.911Z,4.13
2022-10-01T09:35:32.112Z,5.00
2022-10-01T09:38:09.890Z,4.43
2022-10-01T09:40:50.484Z,5.32
2022-10-01T09:43:16.955Z,5.22
2022-10-01T09:45:43.348Z,5.60
2022-10-01T09:48:39.001Z,5.43
2022-10-01T09:53:44.473Z,6.40
2022-10-01T09:56:21.586Z,6.13
2022-10-01T09:58:53.578Z,6.18
2022-10-01T10:01:31.420Z,6.47
2022-10-01T10:03:58.057Z,5.68
2022-10-01T10:06:28.396Z,6.50
2022-10-01T10:08:57.191Z,6.63
2022-10-01T10:11:31.945Z,6.10
2022-10-01T10:14:01.590Z,6.78
2022-10-01T10:16:44.180Z,6.93
2022-10-01T10:19:47.664Z,7.00
2022-10-01T10:22:22.546Z,5.72
2022-10-01T10:27:25.532Z,6.05
2022-10-01T10:30:21.242Z,6.20
2022-10-01T10:32:47.798Z,6.35
2022-10-01T10:35:18.384Z,6.05
2022-10-01T10:37:56.450Z,5.55
2022-10-01T10:40:29.334Z,5.75
2022-10-01T10:42:58.509Z,5.22
2022-10-01T10:45:35.527Z,4.72
2022-10-01T10:48:05.064Z,5.10
2022-10-01T10:50:35.380Z,5.00
2022-10-01T10:53:21.840Z,5.05
2022-10-01T10:56:00.132Z,4.82
2022-10-01T10:58:29.141Z,4.57
2022-10-01T11:00:58.869Z,4.60
2022-10-01T11:03:29.384Z,3.55
2022-10-01T11:06:03.461Z,4.07
2022-10-01T11:08:30.089Z,4.00
2022-10-01T11:11:08.986Z,4.13
2022-10-01T11:14:04.795Z,3.78
2022-10-01T11:16:59.056Z,3.45
2022-10-01T11:19:37.577Z,3.90
2022-10-01T11:22:19.081Z,3.25
2022-10-01T11:25:05.597Z,4.28
2022-10-01T11:27:53.589Z,3.67
2022-10-01T11:30:23.977Z,4.40
2022-10-01T11:33:13.509Z,4.03
2022-10-01T11:35:58.403Z,4.05
2022-10-01T11:38:33.013Z,3.45
2022-10-01T11:41:26.302Z,3.80
2022-10-01T11:44:01.666Z,4.00
2022-10-01T11:46:41.683Z,3.80
2022-10-01T11:49:24.651Z,3.55
2022-10-01T11:52:06.664Z,3.67
2022-10-01T11:54:35.977Z,3.42
2022-10-01T11:57:04.798Z,3.13
2022-10-01T11:59:38.891Z,3.20
2022-10-01T12:02:24.184Z,3.05
2022-10-01T12:04:58.388Z,3.28
2022-10-01T12:08:02.267Z,3.30
2022-10-01T12:10:48.081Z,4.40
2022-10-01T12:13:45.395Z,4.50
2022-10-01T12:16:20.711Z,4.38
2022-10-01T12:18:54.532Z,5.18
2022-10-01T12:21:26.418Z,4.15
2022-10-01T12:24:03.230Z,3.72
2022-10-01T12:26:32.870Z,3.35
2022-10-01T12:29:08.623Z,3.05
2022-10-01T12:32:02.730Z,3.88
2022-10-01T12:34:38.027Z,3.25
2022-10-01T12:37:19.597Z,3.22
2022-10-01T12:40:04.746Z,3.70
2022-10-01T12:42:43.323Z,3.38
2022-10-01T12:45:40.064Z,3.95
2022-10-01T12:48:15.816Z,3.65
2022-10-01T12:51:15.340Z,3.83
2022-10-01T12:53:52.981Z,4.10
2022-10-01T12:56:52.546Z,3.53
2022-10-01T12:59:30.364Z,3.33
2022-10-01T13:02:21.171Z,2.53
2022-10-01T13:05:16.293Z,2.33
2022-10-01T13:08:09.942Z,2.50
2022-10-01T13:11:00.778Z,2.28
2022-10-01T13:13:29.724Z,2.40
2022-10-01T13:16:06.198Z,2.20
2022-10-01T13:19:02.883Z,2.40
2022-10-01T13:21:29.152Z,2.60
2022-10-01T13:24:11.451Z,2.75
2022-10-01T13:26:50.537Z,2.33
2022-10-01T13:29:35.421Z,2.80
2022-10-01T13:32:04.601Z,2.53
2022-10-01T13:34:37.918Z,2.20
2022-10-01T13:37:10.222Z,2.33
2022-10-01T13:39:39.538Z,1.80
2022-10-01T13:42:05.968Z,1.33
2022-10-01T13:44:35.945Z,0.90
2022-10-01T13:47:06.158Z,1.40
2022-10-01T13:49:33.728Z,0.85
2022-10-01T13:52:00.876Z,1.02
2022-10-01T13:54:39.608Z,1.00
2022-10-01T13:57:09.379Z,1.35
2022-10-01T13:59:37.552Z,1.65
2022-10-01T14:02:28.719Z,1.60
2022-10-01T14:04:57.325Z,1.65
2022-10-01T14:07:33.655Z,1.50
2022-10-01T14:10:01.265Z,1.80
2022-10-01T14:12:36.130Z,1.60
2022-10-01T14:17:41.571Z,1.75
2022-10-01T14:20:08.784Z,2.03
2022-10-01T14:23:11.585Z,1.90
2022-10-01T14:25:55.371Z,2.15
2022-10-01T14:28:32.891Z,1.75
2022-10-01T14:31:05.447Z,2.15
2022-10-01T14:34:05.793Z,1.60
2022-10-01T14:36:35.513Z,2.05
2022-10-01T14:39:13.135Z,1.90
2022-10-01T14:41:39.489Z,1.80
2022-10-01T14:44:21.106Z,2.13
2022-10-01T14:46:51.971Z,1.92
2022-10-01T14:49:26.192Z,2.05
2022-10-01T14:51:58.355Z,2.33
2022-10-01T14:54:25.380Z,2.28
2022-10-01T14:56:52.849Z,2.28
2022-10-01T14:59:37.328Z,2.47
2022-10-01T15:02:17.384Z,2.22
2022-10-01T15:04:51.273Z,2.30
2022-10-01T15:07:18.289Z,2.13
2022-10-01T15:09:46.166Z,2.40
2022-10-01T15:12:14.813Z,2.33
2022-10-01T15:14:42.147Z,2.65
2022-10-01T15:17:18.096Z,2.90
2022-10-01T15:19:46.185Z,2.47
2022-10-01T15:22:13.230Z,2.42
2022-10-01T15:24:47.913Z,2.75
2022-10-01T15:27:18.423Z,2.63
2022-10-01T15:29:46.642Z,2.70
2022-10-01T15:32:16.766Z,2.95
2022-10-01T15:34:48.197Z,2.97
2022-10-01T15:37:22.093Z,2.17
2022-10-01T15:39:50.245Z,2.03
2022-10-01T15:42:23.910Z,2.30
2022-10-01T15:44:50.236Z,1.90
2022-10-01T15:47:23.668Z,1.98
2022-10-01T15:50:13.267Z,2.85
2022-10-01T15:52:55.008Z,2.15
2022-10-01T15:55:26.506Z,2.38
2022-10-01T15:58:17.857Z,2.13
2022-10-01T16:00:57.386Z,2.00
2022-10-01T16:03:30.885Z,2.60
2022-10-01T16:05:58.651Z,2.60
2022-10-01T16:08:28.917Z,2.17
2022-10-01T16:11:15.586Z,2.03
2022-10-01T16:13:47.429Z,1.50
2022-10-01T16:16:13.764Z,2.30
2022-10-01T16:18:41.512Z,2.08
2022-10-01T16:21:10.478Z,2.20
2022-10-01T16:23:39.724Z,1.88
2022-10-01T16:26:29.198Z,1.88
2022-10-01T16:28:56.327Z,2.38
2022-10-01T16:31:26.407Z,2.20
2022-10-01T16:33:52.981Z,1.80
2022-10-01T16:36:21.075Z,2.40
2022-10-01T16:38:47.956Z,2.00
2022-10-01T16:41:20.290Z,3.42
2022-10-01T16:43:46.623Z,2.50
2022-10-01T16:46:13.014Z,2.78
2022-10-01T16:48:39.384Z,3.10
2022-10-01T16:51:05.931Z,3.22
2022-10-01T16:53:32.502Z,3.00
2022-10-01T16:55:58.856Z,3.13
2022-10-01T16:58:25.259Z,3.33
2022-10-01T17:00:51.802Z,2.90
2022-10-01T17:03:21.689Z,3.33
2022-10-01T17:05:48.321Z,3.22
2022-10-01T17:08:14.690Z,3.00
2022-10-01T17:10:46.381Z,2.78
2022-10-01T17:13:14.059Z,2.63
2022-10-01T17:15:41.139Z,3.17
2022-10-01T17:18:08.019Z,2.75
2022-10-01T17:20:34.421Z,2.70
2022-10-01T17:23:00.728Z,2.10
2022-10-01T17:25:30.853Z,2.38
2022-10-01T17:27:57.973Z,2.10
2022-10-01T17:30:24.410Z,1.80
2022-10-01T17:32:50.766Z,2.53
2022-10-01T17:35:17.114Z,2.05
2022-10-01T17:37:43.473Z,2.53
2022-10-01T17:40:10.587Z,2.75
2022-10-01T17:42:37.053Z,2.28
2022-10-01T17:45:06.724Z,2.40
2022-10-01T17:47:33.081Z,2.13
2022-10-01T17:49:59.643Z,2.20
2022-10-01T17:52:25.994Z,1.80
2022-10-01T17:54:52.406Z,2.38
2022-10-01T17:57:18.730Z,3.40
2022-10-01T17:59:45.045Z,3.25
2022-10-01T18:02:36.623Z,2.97
2022-10-01T18:04:58.863Z,2.80
2022-10-01T18:07:25.283Z,3.03
2022-10-01T18:09:51.707Z,2.78
2022-10-01T18:12:18.656Z,2.33
2022-10-01T18:14:45.034Z,2.60
2022-10-01T18:17:11.411Z,2.28
2022-10-01T18:19:54.080Z,2.70
2022-10-01T18:22:21.048Z,2.45
2022-10-01T18:24:47.501Z,2.63
2022-10-01T18:27:13.987Z,2.50
2022-10-01T18:29:40.328Z,2.30
2022-10-01T18:32:14.606Z,2.60
2022-10-01T18:35:01.554Z,3.10
2022-10-01T18:37:42.584Z,2.70
2022-10-01T18:40:16.227Z,4.00
2022-10-01T18:43:00.674Z,4.55
2022-10-01T18:45:39.034Z,3.95
2022-10-01T18:48:11.236Z,4.63
2022-10-01T18:51:08.139Z,3.70
2022-10-01T18:54:07.832Z,3.70
2022-10-01T18:56:37.107Z,4.70
2022-10-01T18:59:34.827Z,4.18
2022-10-01T19:02:20.425Z,4.53
2022-10-01T19:05:01.846Z,4.65
2022-10-01T19:07:49.599Z,4.25
2022-10-01T19:10:22.055Z,3.90
2022-10-01T19:13:05.817Z,3.53
2022-10-01T19:15:50.721Z,3.90
2022-10-01T19:18:43.169Z,3.83
2022-10-01T19:21:21.325Z,4.50
2022-10-01T19:24:17.359Z,4.03
2022-10-01T19:26:52.400Z,3.47
2022-10-01T19:29:24.804Z,3.30
2022-10-01T19:32:02.137Z,4.32
2022-10-01T19:34:52.242Z,3.78
2022-10-01T19:37:39.153Z,3.65
2022-10-01T19:40:27.911Z,4.15
2022-10-01T19:43:06.910Z,4.57
2022-10-01T19:45:43.123Z,4.30
2022-10-01T19:48:26.212Z,4.63
2022-10-01T19:50:59.210Z,5.00
2022-10-01T19:53:35.214Z,4.90
2022-10-01T19:56:02.280Z,4.75
2022-10-01T19:58:28.836Z,4.70
2022-10-01T20:00:57.626Z,4.97
2022-10-01T20:03:54.320Z,5.25
2022-10-01T20:06:37.471Z,4.80
2022-10-01T20:09:27.851Z,5.10
2022-10-01T20:12:31.526Z,5.20
2022-10-01T20:15:24.854Z,4.50
2022-10-01T20:17:51.131Z,4.25
2022-10-01T20:20:26.253Z,3.92
2022-10-01T20:23:19.922Z,4.55
2022-10-01T20:26:14.038Z,4.35
2022-10-01T20:29:02.161Z,4.05
2022-10-01T20:31:34.040Z,4.10
2022-10-01T20:34:09.534Z,3.53
2022-10-01T20:36:43.825Z,3.45
2022-10-01T20:39:19.505Z,2.70
2022-10-01T20:41:49.175Z,3.65
2022-10-01T20:44:22.274Z,3.40
2022-10-01T20:46:53.264Z,3.35
2022-10-01T20:49:32.399Z,3.47
2022-10-01T20:52:30.327Z,4.07
2022-10-01T20:55:03.155Z,3.47
2022-10-01T20:57:44.706Z,3.33
2022-10-01T21:00:21.879Z,2.92
2022-10-01T21:02:56.089Z,3.28
2022-10-01T21:05:53.502Z,2.88
2022-10-01T21:08:25.910Z,3.08
2022-10-01T21:10:54.335Z,2.42
2022-10-01T21:13:29.725Z,3.13
2022-10-01T21:16:14.678Z,3.33
2022-10-01T21:19:06.756Z,3.25
2022-10-01T21:21:55.278Z,3.33
2022-10-01T21:24:56.289Z,2.60
2022-10-01T21:28:00.789Z,3.75
2022-10-01T21:30:36.793Z,3.25
2022-10-01T21:33:14.061Z,3.40
2022-10-01T21:35:52.518Z,4.15
2022-10-01T21:38:30.870Z,3.55
2022-10-01T21:41:11.899Z,4.20
2022-10-01T21:44:11.210Z,4.53
2022-10-01T21:46:52.950Z,3.85
2022-10-01T21:49:44.008Z,3.78
2022-10-01T21:52:46.241Z,3.08
2022-10-01T21:55:24.969Z,2.90
2022-10-01T21:58:22.294Z,2.67
2022-10-01T22:01:08.843Z,1.98
2022-10-01T22:03:43.320Z,2.35
2022-10-01T22:06:17.696Z,2.58
2022-10-01T22:09:07.179Z,2.40
2022-10-01T22:11:39.150Z,2.45
2022-10-01T22:14:15.238Z,2.90
2022-10-01T22:16:49.961Z,3.08
2022-10-01T22:19:25.715Z,2.30
2022-10-01T22:21:59.303Z,2.15
2022-10-01T22:24:32.086Z,2.20
2022-10-01T22:27:04.163Z,2.83
2022-10-01T22:29:32.633Z,2.70
2022-10-01T22:32:03.216Z,2.10
2022-10-01T22:34:35.824Z,2.55
2022-10-01T22:37:08.017Z,2.67
2022-10-01T22:39:39.474Z,2.55
2022-10-01T22:42:32.255Z,3.05
2022-10-01T22:45:06.038Z,2.53
2022-10-01T22:47:32.278Z,2.20
2022-10-01T22:50:16.527Z,2.45
2022-10-01T22:52:59.110Z,2.08
2022-10-01T22:55:30.920Z,2.47
2022-10-01T22:58:05.395Z,2.38
2022-10-01T23:00:39.179Z,2.70
2022-10-01T23:03:11.416Z,2.35
2022-10-01T23:05:40.691Z,2.10
2022-10-01T23:08:19.980Z,1.98
2022-10-01T23:10:59.924Z,1.90
2022-10-01T23:13:35.342Z,2.30
2022-10-01T23:16:21.378Z,2.10
2022-10-01T23:19:38.170Z,2.33
2022-10-01T23:22:15.280Z,1.80
2022-10-01T23:25:07.906Z,1.70
2022-10-01T23:28:01.950Z,1.85
2022-10-01T23:30:52.300Z,2.30
2022-10-01T23:34:20.378Z,1.95
2022-10-01T23:36:56.246Z,2.67
2022-10-01T23:39:34.949Z,2.47
2022-10-01T23:42:11.982Z,2.78
2022-10-01T23:45:01.866Z,2.78
2022-10-01T23:47:39.865Z,3.70
2022-10-01T23:50:17.293Z,2.83
2022-10-01T23:52:51.830Z,3.03
2022-10-01T23:55:25.766Z,3.80
2022-10-01T23:57:58.601Z,3.20
